Latest Weather Observations for Georgetown Airport

IDQ60801

Issued at 5:32 pm EST Tuesday 17 October 2017 (issued every 30 minutes, with the page automatically refreshed every 10 minutes)

About weather observations | Map of weather stations | Latest weather observations for QLD | Other Formats
Station Details ID: 030124 Name: GEORGETOWN AIRPORT Lat: -18.30 Lon: 143.53 Height: 301.77 m
Data from the previous 72 hours. | See also: Recent months at Georgetown Airport
Date/Time
EST
Temp
°C
App
Temp
°C
Dew
Point
°C
Rel
Hum
%
Delta-T
°C
Wind Press
QNH
hPa
Press
MSL
hPa
Rain since
9am
mm
Dir  Spd
km/h
Gust
km/h
Spd
kts
Gust
kts
17/05:30pm 28.0 27.3 12.0 37 9.4 NNE 7 11 4 6 1009.4 - 0.2
17/05:00pm 28.0 26.5 12.0 37 9.4 NE 11 17 6 9 1009.0 - 0.2
17/04:30pm 28.2 26.3 11.7 36 9.6 E 13 20 7 11 1008.8 - 0.2
17/04:00pm 27.2 27.0 13.5 42 8.2 ESE 7 19 4 10 1009.0 - 0.2
17/03:30pm 27.7 26.5 15.0 45 7.8 ESE 15 24 8 13 1009.3 - 0.2
17/03:00pm 27.5 27.2 15.5 48 7.4 E 11 19 6 10 1009.6 1007.6 0.2
17/02:30pm 27.5 26.0 15.2 47 7.6 SE 17 24 9 13 1010.0 - 0.2
17/02:00pm 27.5 27.2 15.5 48 7.4 SSE 11 20 6 11 1010.6 - 0.2
17/01:30pm 26.5 25.5 14.6 48 7.2 SSE 13 20 7 11 1011.0 - 0.2
17/01:00pm 26.1 25.2 14.9 50 6.8 S 13 22 7 12 1011.2 - 0.2
17/12:30pm 25.4 24.9 14.8 52 6.4 S 11 17 6 9 1011.8 - 0.2
17/12:00pm 24.6 24.6 16.3 60 5.1 S 11 17 6 9 1012.2 1010.2 0.2
17/11:30am 23.8 22.9 15.8 61 4.9 SSW 15 28 8 15 1012.1 - 0.2
17/11:00am 23.0 21.8 17.5 71 3.5 SW 20 26 11 14 1012.2 - 0.2
17/10:30am 23.9 24.8 17.6 68 4.0 N 9 19 5 10 1011.7 - 0.2
17/10:00am 21.4 21.9 18.4 83 1.9 NE 13 22 7 12 1012.0 - 0.0
17/09:30am 20.2 19.5 18.3 89 1.2 NE 19 22 10 12 1012.3 - 0.0
17/09:00am 19.9 20.2 17.9 88 1.2 NNE 13 17 7 9 1013.0 1011.0 11.6
17/08:30am 19.7 20.7 17.8 89 1.2 NE 9 13 5 7 1013.3 - 11.4
17/08:00am 19.8 21.3 17.6 87 1.4 N 6 9 3 5 1013.2 - 11.2
17/07:30am 19.4 18.4 17.5 89 1.2 NE 19 26 10 14 1011.9 - 11.2
17/07:00am 19.4 17.8 17.5 89 1.2 NNE 22 28 12 15 1011.2 - 11.2
17/06:30am 19.3 19.0 17.4 89 1.2 N 15 20 8 11 1011.8 - 11.2
17/06:00am 19.2 18.9 17.3 89 1.2 N 15 20 8 11 1011.1 1009.0 11.2
17/05:30am 19.0 19.5 17.5 91 0.9 N 11 20 6 11 1011.5 - 11.2
17/05:00am 19.0 17.8 17.5 91 0.9 NNE 20 30 11 16 1010.6 - 11.2
17/04:30am 19.2 20.3 18.0 93 0.7 N 9 17 5 9 1011.3 - 11.0
17/04:00am 19.0 19.6 17.8 93 0.7 W 11 17 6 9 1011.2 - 10.8
17/03:30am 19.0 18.2 18.0 94 0.6 NNE 19 22 10 12 1009.6 - 10.4
17/03:00am 18.9 19.6 17.9 94 0.6 NNE 11 15 6 8 1010.4 1008.4 9.6
17/02:30am 18.9 20.9 17.9 94 0.6 ENE 4 9 2 5 1011.3 - 9.2
17/02:00am 18.7 18.2 17.9 95 0.5 ENE 17 22 9 12 1011.7 - 9.0
17/01:30am 18.5 18.4 17.8 96 0.4 NNE 15 19 8 10 1012.2 - 8.0
17/01:00am 18.3 19.1 17.3 94 0.6 E 9 15 5 8 1012.4 - 5.8
17/12:50am 17.9 17.7 16.8 93 0.7 ESE 13 17 7 9 1012.5 - 5.4
17/12:30am 18.1 17.4 16.3 89 1.1 E 15 24 8 13 1012.7 - 3.8
17/12:23am 18.5 18.5 16.3 87 1.3 E 11 15 6 8 1012.9 - 2.2
17/12:00am 19.2 19.5 16.1 82 1.9 NE 9 13 5 7 1013.2 1011.2 0.0
 
Date/Time
EST
Temp
°C
App
Temp
°C
Dew
Point
°C
Rel
Hum
%
Delta-T
°C
Wind Press
QNH
hPa
Press
MSL
hPa
Rain since
9am
mm
Dir  Spd
km/h
Gust
km/h
Spd
kts
Gust
kts
16/11:30pm 19.2 17.6 17.5 90 1.1 ENE 22 28 12 15 1012.7 - 0.0
16/11:20pm 18.6 16.5 16.2 86 1.4 ESE 22 33 12 18 1012.5 - 0.0
16/11:06pm 18.9 16.9 16.5 86 1.5 NE 22 41 12 22 1013.0 - 0.0
16/11:00pm 19.5 17.1 16.5 83 1.8 E 24 41 13 22 1012.6 - 0.0
16/10:58pm 19.9 17.0 16.2 79 2.2 E 26 41 14 22 1012.5 - 0.0
16/10:30pm 25.2 26.0 16.3 57 5.5 ENE 7 11 4 6 1011.8 - 0.0
16/10:00pm 25.2 24.5 16.3 57 5.5 ENE 15 22 8 12 1010.7 - 0.0
16/09:30pm 25.5 23.1 16.4 57 5.7 ENE 24 39 13 21 1010.1 - 0.0
16/09:00pm 26.3 25.0 15.7 52 6.6 ENE 17 30 9 16 1009.6 1007.6 0.0
16/08:30pm 25.9 26.5 15.3 52 6.5 E 6 9 3 5 1008.9 - 0.0
16/08:00pm 26.6 27.0 14.7 48 7.2 E 6 9 3 5 1008.3 - 0.0
16/07:30pm 27.5 27.2 14.5 45 7.9 ESE 9 13 5 7 1007.7 - 0.0
16/07:00pm 28.5 26.5 12.8 38 9.3 E 15 20 8 11 1007.4 - 0.0
16/06:30pm 29.4 29.0 15.1 41 8.8 E 11 15 6 8 1006.9 - 0.0
16/06:00pm 29.9 29.0 14.8 39 9.3 E 13 20 7 11 1006.6 1004.6 0.0
16/05:30pm 30.1 28.4 14.6 39 9.5 ESE 17 26 9 14 1006.4 - 0.0
16/05:00pm 32.7 32.3 12.9 30 12.0 SE 7 13 4 7 1005.9 - 0.0
16/04:30pm 33.3 32.3 13.4 30 12.2 WSW 11 19 6 10 1006.1 - 0.0
16/04:00pm 32.8 31.4 13.4 30 11.8 W 13 20 7 11 1006.3 - 0.0
16/03:30pm 32.4 32.0 13.1 31 11.7 WNW 7 13 4 7 1006.6 - 0.0
16/03:00pm 31.1 30.8 14.3 36 10.4 E 9 13 5 7 1007.1 1005.1 0.0
16/02:30pm 30.8 31.1 14.4 36 10.1 ENE 6 11 3 6 1007.7 - 0.0
16/02:00pm 30.2 30.8 14.3 38 9.7 ENE 4 9 2 5 1008.3 - 0.0
16/01:30pm 32.1 31.9 15.6 37 10.4 NW 11 17 6 9 1008.7 - 0.0
16/01:00pm 30.8 32.0 16.0 40 9.3 N 4 9 2 5 1009.3 - 0.0
16/12:30pm 30.5 30.8 16.1 41 9.1 N 9 17 5 9 1009.7 - 0.0
16/12:00pm 29.1 29.6 15.6 44 8.4 NNE 7 15 4 8 1010.4 1008.4 0.0
16/11:30am 27.5 27.7 15.8 48 7.3 W 9 15 5 8 1011.1 - 0.0
16/11:00am 27.8 27.9 16.4 50 7.2 NNE 11 17 6 9 1011.7 - 0.0
16/10:30am 26.8 27.2 16.4 53 6.5 ENE 9 13 5 7 1011.9 - 0.0
16/10:00am 25.6 26.0 16.4 56 5.7 E 9 13 5 7 1012.1 - 0.0
16/09:30am 24.7 24.6 16.9 62 4.9 E 13 19 7 10 1012.0 - 0.0
16/09:00am 24.2 24.1 17.9 68 4.0 E 15 20 8 11 1012.0 1010.0 3.6
16/08:30am 22.9 22.7 17.6 72 3.3 E 15 24 8 13 1011.8 - 3.6
16/08:00am 22.2 22.4 17.6 75 2.9 E 13 20 7 11 1011.9 - 3.6
16/07:30am 21.7 22.3 17.7 78 2.5 E 11 17 6 9 1011.8 - 3.6
16/07:00am 21.3 23.0 18.1 82 2.0 E 6 9 3 5 1011.5 - 3.6
16/06:30am 20.9 22.4 17.7 82 2.0 ESE 6 7 3 4 1011.1 - 3.6
16/06:00am 20.9 21.8 17.5 81 2.1 SE 9 13 5 7 1010.7 1008.7 3.6
16/05:30am 20.9 22.7 18.7 87 1.4 SE 7 13 4 7 1010.8 - 3.6
16/05:00am 20.8 23.5 18.7 88 1.3 SSW 2 7 1 4 1010.7 - 3.6
16/04:30am 21.0 22.8 18.8 87 1.4 W 7 9 4 5 1010.2 - 3.6
16/04:00am 21.0 24.1 18.6 86 1.5 CALM 0 0 0 0 1009.8 - 3.6
16/03:30am 21.2 24.1 18.2 83 1.9 CALM 0 0 0 0 1009.4 - 3.6
16/03:00am 21.0 23.9 18.2 84 1.8 CALM 0 0 0 0 1009.4 1007.4 3.6
16/02:30am 21.3 23.5 17.5 79 2.4 E 2 7 1 4 1009.5 - 3.6
16/02:00am 21.5 22.3 17.3 77 2.6 ESE 9 15 5 8 1009.5 - 3.6
16/01:30am 21.7 23.1 17.7 78 2.5 E 7 9 4 5 1009.7 - 3.6
16/01:00am 21.9 22.6 17.9 78 2.5 NE 11 15 6 8 1009.9 - 3.6
16/12:30am 21.8 22.7 17.6 77 2.6 E 9 17 5 9 1010.1 - 3.6
16/12:00am 21.8 22.4 17.8 78 2.5 E 11 19 6 10 1009.9 1007.9 3.6
 
Date/Time
EST
Temp
°C
App
Temp
°C
Dew
Point
°C
Rel
Hum
%
Delta-T
°C
Wind Press
QNH
hPa
Press
MSL
hPa
Rain since
9am
mm
Dir  Spd
km/h
Gust
km/h
Spd
kts
Gust
kts
15/11:30pm 21.5 23.1 18.3 82 2.0 E 7 11 4 6 1010.3 - 3.6
15/11:00pm 21.5 22.0 18.3 82 2.0 ENE 13 19 7 10 1010.0 - 3.6
15/10:30pm 21.7 23.2 18.9 84 1.8 ENE 9 17 5 9 1010.1 - 3.6
15/10:00pm 21.4 22.9 19.0 86 1.5 E 9 15 5 8 1009.7 - 3.6
15/09:30pm 21.5 22.3 19.1 86 1.5 ENE 13 19 7 10 1009.5 - 3.6
15/09:00pm 21.4 22.2 19.1 87 1.5 ESE 13 20 7 11 1009.5 1007.5 3.6
15/08:30pm 21.1 22.1 19.4 90 1.1 SE 13 24 7 13 1010.1 - 3.6
15/08:00pm 21.1 21.9 19.9 93 0.8 ESE 15 22 8 12 1010.7 - 3.2
15/07:30pm 21.1 22.6 19.7 92 0.9 SE 11 20 6 11 1010.4 - 2.4
15/07:00pm 20.6 21.5 19.3 92 0.8 S 13 20 7 11 1010.5 - 2.0
15/06:30pm 20.7 20.1 18.5 87 1.4 S 19 30 10 16 1010.3 - 1.0
15/06:26pm 20.7 20.5 18.6 88 1.3 S 17 33 9 18 1010.3 - 0.8
15/06:00pm 22.2 17.7 16.5 70 3.5 SW 35 57 19 31 1009.6 1007.6 0.0
15/05:59pm 22.4 17.5 16.4 69 3.7 SW 37 57 20 31 1009.6 - 0.0
15/05:56pm 22.6 18.5 16.4 68 3.8 SW 33 63 18 34 1009.5 - 0.0
15/05:39pm 25.4 17.2 15.1 53 6.3 W 52 72 28 39 1008.2 - 0.0
15/05:37pm 27.5 19.3 15.2 47 7.6 W 52 65 28 35 1007.8 - 0.0
15/05:30pm 32.1 30.3 15.6 37 10.4 WNW 19 28 10 15 1006.2 - 0.0
15/05:00pm 32.2 30.9 15.7 37 10.4 W 17 26 9 14 1005.7 - 0.0
15/04:30pm 32.8 31.5 14.9 34 11.2 WNW 15 20 8 11 1005.8 - 0.0
15/04:00pm 33.2 33.2 15.2 33 11.3 NNW 9 19 5 10 1004.8 - 0.0
15/03:30pm 33.3 33.1 14.8 32 11.6 NNW 9 15 5 8 1005.1 - 0.0
15/03:00pm 33.7 32.7 14.7 32 11.9 NNW 13 20 7 11 1005.2 1003.1 0.0
15/02:30pm 33.5 32.1 14.5 31 11.8 N 15 26 8 14 1005.6 - 0.0
15/02:00pm 32.6 32.6 15.1 34 10.9 NNW 9 19 5 10 1006.3 - 0.0
15/01:30pm 32.9 32.6 15.4 35 11.0 N 11 19 6 10 1007.7 - 0.0
15/01:00pm 32.3 32.7 16.2 38 10.2 N 9 19 5 10 1008.5 - 0.0
15/12:30pm 32.0 32.2 16.7 40 9.8 N 11 20 6 11 1009.2 - 0.0
15/12:00pm 31.7 32.1 17.2 42 9.3 E 11 19 6 10 1009.9 1007.9 0.0
15/11:30am 30.0 31.0 16.8 45 8.4 E 7 17 4 9 1010.5 - 0.0
15/11:00am 29.1 28.5 16.6 46 7.9 NNE 15 20 8 11 1011.0 - 0.0
15/10:30am 29.6 28.5 16.4 45 8.3 NNE 17 26 9 14 1010.8 - 0.0
15/10:00am 29.3 29.1 16.8 47 7.9 N 13 20 7 11 1011.4 - 0.0
15/09:30am 28.4 27.4 16.7 49 7.4 NE 17 26 9 14 1011.5 - 0.0
15/09:00am 27.5 26.5 16.5 51 6.9 ENE 17 22 9 12 1011.6 1009.6 0.0
15/08:30am 26.5 25.5 16.7 55 6.1 ENE 17 24 9 13 1011.8 - 0.0
15/08:00am 25.2 23.4 16.1 57 5.6 NE 20 28 11 15 1011.5 - 0.0
15/07:30am 24.9 23.3 16.6 60 5.2 ENE 20 28 11 15 1011.2 - 0.0
15/07:00am 23.9 22.3 15.9 61 4.9 ENE 19 24 10 13 1010.8 - 0.0
15/06:30am 23.6 22.4 16.1 62 4.6 ENE 17 26 9 14 1010.5 - 0.0
15/06:00am 23.5 22.6 15.8 62 4.7 ENE 15 20 8 11 1010.0 1008.0 0.0
15/05:30am 23.7 22.0 15.7 61 4.9 ENE 19 28 10 15 1009.3 - 0.0
15/05:00am 23.8 21.2 15.0 57 5.3 ENE 22 30 12 16 1009.0 - 0.0
15/04:30am 24.1 23.6 17.8 68 4.0 ENE 17 26 9 14 1008.7 - 0.0
15/04:00am 24.2 24.0 18.6 71 3.6 E 17 28 9 15 1008.7 - 0.0
15/03:30am 24.6 24.8 18.5 69 3.9 E 15 22 8 12 1008.4 - 0.0
15/03:00am 24.9 25.2 18.8 69 3.9 E 15 26 8 14 1008.2 1006.1 0.0
15/02:30am 24.9 24.9 19.0 69 3.8 E 17 22 9 12 1008.6 - 0.0
15/02:00am 25.6 26.4 19.0 67 4.3 ENE 13 20 7 11 1008.9 - 0.0
15/01:30am 26.5 26.9 18.1 60 5.4 E 13 19 7 10 1008.4 - 0.0
15/01:00am 27.3 25.3 17.5 55 6.2 ENE 24 32 13 17 1008.2 - 0.0
15/12:30am 29.0 28.5 16.9 48 7.7 E 15 28 8 15 1008.2 - 0.0
15/12:00am 29.9 28.2 16.3 43 8.6 E 20 32 11 17 1008.1 1006.0 0.0
 
Date/Time
EST
Temp
°C
App
Temp
°C
Dew
Point
°C
Rel
Hum
%
Delta-T
°C
Wind Press
QNH
hPa
Press
MSL
hPa
Rain since
9am
mm
Dir  Spd
km/h
Gust
km/h
Spd
kts
Gust
kts
14/11:30pm 30.4 28.4 12.8 34 10.6 ENE 15 20 8 11 1008.1 - 0.0
14/11:00pm 31.2 30.8 13.0 33 11.0 NE 7 20 4 11 1008.2 - 0.0
14/10:30pm 29.3 29.0 12.7 36 9.9 ESE 6 7 3 4 1008.1 - 0.0
14/10:00pm 28.3 29.0 12.2 37 9.5 CALM 0 0 0 0 1007.9 - 0.0
14/09:30pm 28.1 28.6 11.6 36 9.6 CALM 0 0 0 0 1007.7 - 0.0
14/09:00pm 28.3 28.0 11.4 35 9.8 SW 4 6 2 3 1007.7 1005.6 0.0
14/08:30pm 29.0 29.4 11.1 33 10.4 CALM 0 0 0 0 1007.6 - 0.0
14/08:00pm 30.2 29.4 11.2 31 11.1 WSW 6 7 3 4 1007.3 - 0.0
14/07:30pm 31.1 30.4 11.5 30 11.5 WSW 6 7 3 4 1007.1 - 0.0
14/07:00pm 32.5 31.5 11.1 27 12.6 SW 7 9 4 5 1006.8 - 0.0
14/06:30pm 33.5 32.4 10.8 25 13.4 WSW 7 11 4 6 1006.5 - 0.0
14/06:00pm 35.2 33.4 10.9 23 14.5 WNW 11 17 6 9 1006.4 1004.4 0.0

Other Formats:

Comma delimited format used in spreadsheet applications
http://www.bom.gov.au/fwo/IDQ60801/IDQ60801.94274.axf

JavaScript Object Notation format (JSON) in row-major order
http://www.bom.gov.au/fwo/IDQ60801/IDQ60801.94274.json